Time;durP1;ratioP1;P1;durP2;ratioP2;P2;SDS_P1;SDS_P2;PMS_P1;PMS_P2;Temp;Humidity;BMP_temperature;BMP_pressure;BME280_temperature;BME280_humidity;BME280_pressure;Samples;Min_cycle;Max_cycle;Signal;HPM_P1;HPM_P2
2023/03/20 00:02:16;;;;;;;;;12.50;12.50;;;;;;;;5011113;28;8789;-77
2023/03/20 00:04:41;;;;;;;;;11.50;11.50;;;;;;;;5012278;28;11590;-77
2023/03/20 00:07:11;;;;;;;;;14.75;14.00;;;;;;;;5013577;28;11583;-77
2023/03/20 00:09:36;;;;;;;;;19.50;14.50;;;;;;;;5013689;28;8788;-77
2023/03/20 00:12:01;;;;;;;;;16.00;13.00;;;;;;;;5013657;28;11518;-77
2023/03/20 00:14:27;;;;;;;;;16.50;16.50;;;;;;;;5013665;28;8792;-76
2023/03/20 00:16:52;;;;;;;;;14.00;14.00;;;;;;;;5013928;28;9511;-77
2023/03/20 00:19:19;;;;;;;;;14.25;13.50;;;;;;;;5013658;28;8807;-76
2023/03/20 00:21:46;;;;;;;;;16.50;14.25;;;;;;;;5013712;28;8874;-76
2023/03/20 00:24:12;;;;;;;;;17.50;13.00;;;;;;;;5012058;28;11545;-77
2023/03/20 00:26:38;;;;;;;;;16.00;14.00;;;;;;;;5013293;28;11538;-78
2023/03/20 00:31:38;;;;;;;;;12.25;12.25;;;;;;;;4990973;28;11645;-69
2023/03/20 00:34:14;;;;;;;;;0.50;0.00;;;;;;;;4992571;28;11549;-67
2023/03/20 00:36:39;;;;;;;;;8.00;8.00;;;;;;;;4992344;28;8832;-69
2023/03/20 00:39:04;;;;;;;;;11.25;10.75;;;;;;;;4992225;28;11591;-68
2023/03/20 00:41:41;;;;;;;;;7.00;7.00;;;;;;;;4992672;28;8797;-68
2023/03/20 00:44:19;;;;;;;;;6.75;6.75;;;;;;;;4992619;28;8820;-68
2023/03/20 00:46:45;;;;;;;;;6.00;6.00;;;;;;;;4992468;28;11495;-69
2023/03/20 00:49:10;;;;;;;;;10.00;6.50;;;;;;;;4992538;28;12241;-69
2023/03/20 00:51:37;;;;;;;;;5.25;5.25;;;;;;;;4992157;28;11513;-68
2023/03/20 00:54:05;;;;;;;;;10.25;7.75;;;;;;;;4992335;28;8891;-69
2023/03/20 00:56:32;;;;;;;;;10.00;7.00;;;;;;;;4992028;28;11693;-68
2023/03/20 00:58:58;;;;;;;;;5.00;5.00;;;;;;;;4992372;28;11497;-68
2023/03/20 01:01:23;;;;;;;;;9.00;9.00;;;;;;;;4992273;28;11496;-68
2023/03/20 01:03:48;;;;;;;;;7.00;6.50;;;;;;;;4992032;28;11498;-68
2023/03/20 01:06:14;;;;;;;;;7.50;7.50;;;;;;;;4991881;28;8824;-68
2023/03/20 01:08:40;;;;;;;;;6.25;6.00;;;;;;;;4992444;28;8785;-68
2023/03/20 01:11:05;;;;;;;;;9.25;7.00;;;;;;;;4992372;28;8809;-68
2023/03/20 01:13:31;;;;;;;;;4.50;4.00;;;;;;;;4992127;28;8864;-68
2023/03/20 01:15:57;;;;;;;;;6.00;6.00;;;;;;;;4990639;28;8820;-68
2023/03/20 01:18:23;;;;;;;;;9.25;5.50;;;;;;;;4991903;28;8825;-68
2023/03/20 01:20:48;;;;;;;;;5.50;5.25;;;;;;;;4991711;28;8812;-68
2023/03/20 01:23:14;;;;;;;;;9.00;5.00;;;;;;;;4991540;28;11503;-68
2023/03/20 01:25:40;;;;;;;;;6.75;5.25;;;;;;;;4991620;28;8809;-67
2023/03/20 01:28:31;;;;;;;;;10.00;5.75;;;;;;;;4991536;28;8983;-68
2023/03/20 01:30:56;;;;;;;;;7.00;5.50;;;;;;;;4989525;28;8863;-68
2023/03/20 01:33:23;;;;;;;;;5.25;5.00;;;;;;;;4990778;28;11507;-68
2023/03/20 01:35:48;;;;;;;;;9.00;6.00;;;;;;;;4993601;28;8832;-68
2023/03/20 01:38:17;;;;;;;;;6.00;5.25;;;;;;;;4994600;28;11479;-68
2023/03/20 01:40:42;;;;;;;;;3.00;1.50;;;;;;;;4991127;28;11500;-68
2023/03/20 01:43:13;;;;;;;;;3.75;3.50;;;;;;;;4991048;28;11427;-68
2023/03/20 01:45:42;;;;;;;;;1.25;0.00;;;;;;;;4991013;28;9018;-68
2023/03/20 01:48:15;;;;;;;;;3.50;3.50;;;;;;;;4991015;28;11418;-68
2023/03/20 01:50:41;;;;;;;;;7.25;5.50;;;;;;;;4990992;28;11460;-68
2023/03/20 01:53:14;;;;;;;;;3.50;3.50;;;;;;;;4990772;28;11555;-68
2023/03/20 01:55:40;;;;;;;;;4.75;3.00;;;;;;;;4990899;28;8820;-68
2023/03/20 01:58:07;;;;;;;;;4.50;4.50;;;;;;;;4990829;28;11424;-68
2023/03/20 02:00:33;;;;;;;;;3.00;2.00;;;;;;;;4990583;28;11467;-68
2023/03/20 02:02:59;;;;;;;;;7.75;5.75;;;;;;;;4990837;28;11417;-68
2023/03/20 02:05:25;;;;;;;;;6.00;5.00;;;;;;;;4990735;28;11615;-68
2023/03/20 02:07:57;;;;;;;;;3.00;3.00;;;;;;;;4990669;28;8793;-68
2023/03/20 02:10:22;;;;;;;;;3.00;3.00;;;;;;;;4989191;28;11455;-68
2023/03/20 02:12:47;;;;;;;;;3.00;2.00;;;;;;;;4989050;28;11569;-68
2023/03/20 02:15:13;;;;;;;;;2.00;2.00;;;;;;;;4990481;28;8836;-68
2023/03/20 02:17:39;;;;;;;;;2.00;2.00;;;;;;;;4990615;28;8797;-67
2023/03/20 02:20:23;;;;;;;;;2.00;1.00;;;;;;;;4990458;28;12383;-68
2023/03/20 02:22:51;;;;;;;;;2.75;0.50;;;;;;;;4990537;28;8804;-67
2023/03/20 02:25:35;;;;;;;;;1.00;0.00;;;;;;;;4989736;28;12163;-68
2023/03/20 02:28:19;;;;;;;;;0.00;0.00;;;;;;;;4990344;28;11569;-68
2023/03/20 02:31:13;;;;;;;;;2.00;1.00;;;;;;;;4990526;28;11451;-67
2023/03/20 02:33:41;;;;;;;;;1.00;0.75;;;;;;;;4990231;28;11429;-68
2023/03/20 02:36:14;;;;;;;;;1.00;0.00;;;;;;;;4990223;28;11427;-67
2023/03/20 02:38:55;;;;;;;;;1.00;1.00;;;;;;;;4990196;28;11575;-67
2023/03/20 02:41:35;;;;;;;;;1.00;1.00;;;;;;;;4990172;28;11453;-69
2023/03/20 02:44:07;;;;;;;;;1.00;1.00;;;;;;;;4990142;28;12195;-68
2023/03/20 02:46:51;;;;;;;;;2.50;2.00;;;;;;;;4989792;28;11482;-68
2023/03/20 02:49:35;;;;;;;;;1.00;1.00;;;;;;;;4989977;28;11491;-67
2023/03/20 02:52:03;;;;;;;;;2.75;2.50;;;;;;;;4989896;28;11577;-67
2023/03/20 02:54:44;;;;;;;;;2.25;2.25;;;;;;;;4989730;28;11495;-68
2023/03/20 02:57:13;;;;;;;;;1.25;1.25;;;;;;;;4989848;28;11440;-68
2023/03/20 03:00:08;;;;;;;;;4.00;3.00;;;;;;;;4990024;28;11500;-68
2023/03/20 03:02:39;;;;;;;;;3.00;2.00;;;;;;;;4989887;28;11492;-67
2023/03/20 03:05:10;;;;;;;;;1.75;1.75;;;;;;;;4989657;28;11507;-68
2023/03/20 03:07:38;;;;;;;;;2.00;2.00;;;;;;;;4990137;28;11459;-68
2023/03/20 03:10:10;;;;;;;;;2.00;2.00;;;;;;;;4988417;28;11517;-70
2023/03/20 03:12:37;;;;;;;;;2.50;2.50;;;;;;;;4989800;28;11616;-69
2023/03/20 03:15:06;;;;;;;;;5.25;3.00;;;;;;;;4989729;28;11507;-69
2023/03/20 03:17:33;;;;;;;;;3.00;3.00;;;;;;;;4989459;28;11609;-68
2023/03/20 03:20:01;;;;;;;;;1.00;1.00;;;;;;;;4989691;28;11632;-67
2023/03/20 03:22:27;;;;;;;;;2.75;1.75;;;;;;;;4989665;28;11499;-67
2023/03/20 03:24:53;;;;;;;;;2.25;2.25;;;;;;;;4989654;28;11637;-67
2023/03/20 03:27:31;;;;;;;;;2.50;2.50;;;;;;;;4992677;28;8797;-67
2023/03/20 03:30:00;;;;;;;;;4.00;2.00;;;;;;;;5014978;22;11697;-71
2023/03/20 03:32:31;;;;;;;;;5.25;3.00;;;;;;;;5028925;28;11493;-71
2023/03/20 03:34:58;;;;;;;;;3.00;2.50;;;;;;;;5028888;28;11461;-73
2023/03/20 03:37:29;;;;;;;;;4.00;2.75;;;;;;;;5029937;28;11481;-72
2023/03/20 03:40:02;;;;;;;;;3.00;3.00;;;;;;;;5032585;28;11549;-72
2023/03/20 03:42:32;;;;;;;;;4.00;2.25;;;;;;;;5032425;28;11494;-73
2023/03/20 03:45:08;;;;;;;;;1.00;0.00;;;;;;;;5032338;28;11489;-72
2023/03/20 03:47:37;;;;;;;;;6.50;2.00;;;;;;;;5032585;28;11454;-73
2023/03/20 03:50:12;;;;;;;;;4.50;2.00;;;;;;;;5032214;28;11463;-72
2023/03/20 03:52:39;;;;;;;;;4.00;2.75;;;;;;;;5032442;28;11458;-72
2023/03/20 03:55:09;;;;;;;;;4.50;3.00;;;;;;;;5032202;28;11521;-73
2023/03/20 03:57:43;;;;;;;;;4.00;2.75;;;;;;;;5032489;28;11767;-72
2023/03/20 04:00:10;;;;;;;;;2.00;2.00;;;;;;;;5032386;28;11496;-72
2023/03/20 04:02:36;;;;;;;;;3.00;2.00;;;;;;;;5032311;28;11576;-72
2023/03/20 04:05:03;;;;;;;;;6.00;2.00;;;;;;;;5031897;28;11637;-72
2023/03/20 04:07:28;;;;;;;;;2.00;2.00;;;;;;;;5032076;28;8803;-72
2023/03/20 04:09:53;;;;;;;;;2.00;1.50;;;;;;;;5032145;28;11525;-73
2023/03/20 04:12:32;;;;;;;;;1.00;1.00;;;;;;;;5032245;28;8792;-72
2023/03/20 04:14:58;;;;;;;;;1.00;1.00;;;;;;;;5032271;28;9005;-73
2023/03/20 04:17:23;;;;;;;;;2.00;2.00;;;;;;;;5030690;28;11604;-72
2023/03/20 04:19:48;;;;;;;;;5.00;1.00;;;;;;;;5032028;28;8828;-72
2023/03/20 04:22:14;;;;;;;;;1.25;0.25;;;;;;;;5031989;28;8823;-73
2023/03/20 04:24:39;;;;;;;;;0.50;0.50;;;;;;;;5032172;28;8844;-73
2023/03/20 04:27:04;;;;;;;;;1.00;1.00;;;;;;;;5031965;28;8811;-73
2023/03/20 04:29:30;;;;;;;;;1.50;0.50;;;;;;;;5032257;28;8822;-71
2023/03/20 04:31:55;;;;;;;;;2.00;0.00;;;;;;;;5031741;28;8889;-73
2023/03/20 04:34:21;;;;;;;;;0.00;0.00;;;;;;;;5031782;28;8808;-72
2023/03/20 04:36:47;;;;;;;;;0.75;0.75;;;;;;;;5031758;28;8799;-73
2023/03/20 04:39:12;;;;;;;;;2.00;2.00;;;;;;;;5032237;28;8889;-73
2023/03/20 04:41:37;;;;;;;;;2.00;1.00;;;;;;;;5031832;28;8794;-73
2023/03/20 04:44:02;;;;;;;;;1.00;1.00;;;;;;;;5030909;28;9636;-74
2023/03/20 04:46:28;;;;;;;;;1.25;1.25;;;;;;;;5031791;28;8875;-66
